createdAt,value
2023-03-15T00:02:48.111Z,0.32
2023-03-15T00:05:17.968Z,0.40
2023-03-15T00:10:18.315Z,0.30
2023-03-15T00:12:47.895Z,0.30
2023-03-15T00:15:17.490Z,0.40
2023-03-15T00:17:46.972Z,0.30
2023-03-15T00:20:16.474Z,0.40
2023-03-15T00:22:46.023Z,0.40
2023-03-15T00:25:15.536Z,0.40
2023-03-15T00:27:46.399Z,0.40
2023-03-15T00:30:16.085Z,0.38
2023-03-15T00:32:48.653Z,0.40
2023-03-15T00:35:18.942Z,0.30
2023-03-15T00:37:48.508Z,0.40
2023-03-15T00:40:32.198Z,0.40
2023-03-15T00:43:03.455Z,0.37
2023-03-15T00:45:33.013Z,0.40
2023-03-15T00:48:02.668Z,0.43
2023-03-15T00:50:32.168Z,0.40
2023-03-15T00:53:01.721Z,0.40
2023-03-15T00:55:31.208Z,0.30
2023-03-15T00:58:00.687Z,0.30
2023-03-15T01:00:32.241Z,0.40
2023-03-15T01:03:01.858Z,0.40
2023-03-15T01:05:31.426Z,0.40
2023-03-15T01:08:03.117Z,0.40
2023-03-15T01:10:33.520Z,0.40
2023-03-15T01:13:04.536Z,0.30
2023-03-15T01:15:35.467Z,0.40
2023-03-15T01:18:05.028Z,0.40
2023-03-15T01:20:34.510Z,0.40
2023-03-15T01:23:22.403Z,0.40
2023-03-15T01:26:12.464Z,0.40
2023-03-15T01:28:42.094Z,0.40
2023-03-15T01:31:16.996Z,0.30
2023-03-15T01:33:47.431Z,0.40
2023-03-15T01:36:17.210Z,0.40
2023-03-15T01:38:47.104Z,0.40
2023-03-15T01:41:18.722Z,0.45
2023-03-15T01:43:48.561Z,0.40
2023-03-15T01:46:34.210Z,0.40
2023-03-15T01:49:19.407Z,0.43
2023-03-15T01:51:51.384Z,0.43
2023-03-15T01:54:23.476Z,0.40
2023-03-15T01:56:54.880Z,0.47
2023-03-15T01:59:28.096Z,0.50
2023-03-15T02:01:59.019Z,0.50
2023-03-15T02:04:31.373Z,0.40
2023-03-15T02:07:02.081Z,0.50
2023-03-15T02:09:37.562Z,0.40
2023-03-15T02:12:07.435Z,0.40
2023-03-15T02:14:37.215Z,0.50
2023-03-15T02:17:10.276Z,0.50
2023-03-15T02:19:44.157Z,0.40
2023-03-15T02:22:23.594Z,0.50
2023-03-15T02:24:58.740Z,0.40
2023-03-15T02:27:30.920Z,0.40
2023-03-15T02:30:03.363Z,0.40
2023-03-15T02:32:33.329Z,0.50
2023-03-15T02:35:02.888Z,0.50
2023-03-15T02:37:33.089Z,0.40
2023-03-15T02:40:03.258Z,0.40
2023-03-15T02:42:34.080Z,0.40
2023-03-15T02:45:04.242Z,0.40
2023-03-15T02:47:35.147Z,0.40
2023-03-15T02:50:05.360Z,0.40
2023-03-15T02:52:34.940Z,0.50
2023-03-15T02:55:05.166Z,0.50
2023-03-15T02:57:36.308Z,0.43
2023-03-15T03:00:13.951Z,0.40
2023-03-15T03:02:44.260Z,0.43
2023-03-15T03:05:14.641Z,0.43
2023-03-15T03:07:44.392Z,0.50
2023-03-15T03:10:16.860Z,0.50
2023-03-15T03:12:55.557Z,0.40
2023-03-15T03:15:45.510Z,0.43
2023-03-15T03:18:16.557Z,0.40
2023-03-15T03:20:46.855Z,0.50
2023-03-15T03:23:16.311Z,0.40
2023-03-15T03:25:45.863Z,0.40
2023-03-15T03:28:16.746Z,0.43
2023-03-15T03:30:49.327Z,0.50
2023-03-15T03:33:41.630Z,0.49
2023-03-15T03:36:27.088Z,0.43
2023-03-15T03:39:05.721Z,0.49
2023-03-15T03:41:35.279Z,0.50
2023-03-15T03:44:29.714Z,0.46
2023-03-15T03:47:11.222Z,0.50
2023-03-15T03:49:40.984Z,0.40
2023-03-15T03:52:12.783Z,0.46
2023-03-15T03:54:42.782Z,0.50
2023-03-15T03:57:13.163Z,0.43
2023-03-15T03:59:44.709Z,0.40
2023-03-15T04:02:14.331Z,0.50
2023-03-15T04:04:50.598Z,0.40
2023-03-15T04:07:23.005Z,0.43
2023-03-15T04:09:52.934Z,0.50
2023-03-15T04:12:23.016Z,0.50
2023-03-15T04:14:57.007Z,0.50
2023-03-15T04:17:29.955Z,0.50
2023-03-15T04:19:59.566Z,0.50
2023-03-15T04:22:32.002Z,0.50
2023-03-15T04:25:09.104Z,0.50
2023-03-15T04:27:59.643Z,0.40
2023-03-15T04:30:49.392Z,0.47
2023-03-15T04:33:33.707Z,0.40
2023-03-15T04:36:18.987Z,0.50
2023-03-15T04:39:05.681Z,0.50
2023-03-15T04:42:07.380Z,0.50
2023-03-15T04:44:55.190Z,0.50
2023-03-15T04:47:44.700Z,0.50
2023-03-15T04:50:32.745Z,0.50
2023-03-15T04:53:22.462Z,0.40
2023-03-15T04:56:21.061Z,0.50
2023-03-15T04:59:10.676Z,0.50
2023-03-15T05:01:48.991Z,0.40
2023-03-15T05:04:33.246Z,0.47
2023-03-15T05:07:23.046Z,0.50
2023-03-15T05:10:12.017Z,0.40
2023-03-15T05:13:12.511Z,0.40
2023-03-15T05:16:12.647Z,0.40
2023-03-15T05:18:53.978Z,0.40
2023-03-15T05:21:39.676Z,0.40
2023-03-15T05:24:31.143Z,0.40
2023-03-15T05:27:25.419Z,0.40
2023-03-15T05:30:14.233Z,0.40
2023-03-15T05:33:05.037Z,0.50
2023-03-15T05:35:45.050Z,0.47
2023-03-15T05:38:16.384Z,0.40
2023-03-15T05:41:07.046Z,0.40
2023-03-15T05:45:10.500Z,0.47
2023-03-15T05:47:51.668Z,0.50
2023-03-15T05:50:35.802Z,0.40
2023-03-15T05:53:32.973Z,0.50
2023-03-15T05:56:28.601Z,0.40
2023-03-15T05:59:16.818Z,0.50
2023-03-15T06:01:55.635Z,0.47
2023-03-15T06:04:32.402Z,0.50
2023-03-15T06:07:02.826Z,0.40
2023-03-15T06:09:36.541Z,0.40
2023-03-15T06:12:07.201Z,0.40
2023-03-15T06:14:36.777Z,0.50
2023-03-15T06:17:10.202Z,0.40
2023-03-15T06:19:40.405Z,0.47
2023-03-15T06:22:09.933Z,0.50
2023-03-15T06:24:56.164Z,0.40
2023-03-15T06:27:26.747Z,0.40
2023-03-15T06:29:58.519Z,0.50
2023-03-15T06:32:28.164Z,0.40
2023-03-15T06:34:57.929Z,0.47
2023-03-15T06:37:35.068Z,0.40
2023-03-15T06:40:08.917Z,0.40
2023-03-15T06:42:39.165Z,0.40
2023-03-15T06:45:10.904Z,0.40
2023-03-15T06:47:41.105Z,0.40
2023-03-15T06:50:11.493Z,0.40
2023-03-15T06:52:41.036Z,0.40
2023-03-15T06:55:17.147Z,0.40
2023-03-15T06:57:47.149Z,0.50
2023-03-15T07:00:17.205Z,0.50
2023-03-15T07:02:46.784Z,0.50
2023-03-15T07:05:16.311Z,0.43
2023-03-15T07:07:45.940Z,0.50
2023-03-15T07:10:16.825Z,0.40
2023-03-15T07:12:46.327Z,0.40
2023-03-15T07:15:17.327Z,0.47
2023-03-15T07:17:47.160Z,0.40
2023-03-15T07:20:16.728Z,0.40
2023-03-15T07:22:46.604Z,0.40
2023-03-15T07:25:23.776Z,0.40
2023-03-15T07:27:53.508Z,0.40
2023-03-15T07:30:23.224Z,0.50
2023-03-15T07:32:52.893Z,0.40
2023-03-15T07:35:22.743Z,0.40
2023-03-15T07:37:52.249Z,0.40
2023-03-15T07:40:23.588Z,0.30
2023-03-15T07:42:53.066Z,0.40
2023-03-15T07:45:22.557Z,0.40
2023-03-15T07:47:52.523Z,0.40
2023-03-15T07:50:22.894Z,0.40
2023-03-15T07:52:52.371Z,0.40
2023-03-15T07:55:23.278Z,0.40
2023-03-15T07:57:53.346Z,0.40
2023-03-15T08:00:23.353Z,0.30
2023-03-15T08:02:52.856Z,0.40
2023-03-15T08:05:22.467Z,0.40
2023-03-15T08:07:52.679Z,0.40
2023-03-15T08:10:23.669Z,0.40
2023-03-15T08:12:53.225Z,0.47
2023-03-15T08:15:22.864Z,0.40
2023-03-15T08:17:52.372Z,0.40
2023-03-15T08:20:22.465Z,0.40
2023-03-15T08:22:52.002Z,0.30
2023-03-15T08:25:22.461Z,0.40
2023-03-15T08:27:53.357Z,0.40
2023-03-15T08:30:23.563Z,0.43
2023-03-15T08:32:53.597Z,0.40
2023-03-15T08:35:23.736Z,0.50
2023-03-15T08:37:53.374Z,0.40
2023-03-15T08:40:25.917Z,0.40
2023-03-15T08:42:57.234Z,0.40
2023-03-15T08:45:27.237Z,0.30
2023-03-15T08:47:57.100Z,0.40
2023-03-15T08:50:27.458Z,0.40
2023-03-15T08:52:57.021Z,0.50
2023-03-15T08:55:26.521Z,0.40
2023-03-15T08:57:57.378Z,0.40
2023-03-15T09:00:27.736Z,0.40
2023-03-15T09:02:57.234Z,0.40
2023-03-15T09:05:27.501Z,0.40
2023-03-15T09:07:57.021Z,0.40
2023-03-15T09:10:26.490Z,0.40
2023-03-15T09:12:57.685Z,0.40
2023-03-15T09:15:27.246Z,0.37
2023-03-15T09:17:56.716Z,0.30
2023-03-15T09:20:28.310Z,0.30
2023-03-15T09:22:58.878Z,0.30
2023-03-15T09:25:28.566Z,0.40
2023-03-15T09:27:59.396Z,0.40
2023-03-15T09:30:29.070Z,0.47
2023-03-15T09:32:58.610Z,0.40
2023-03-15T09:35:28.176Z,0.40
2023-03-15T09:37:57.708Z,0.30
2023-03-15T09:40:28.546Z,0.30
2023-03-15T09:43:03.925Z,0.30
2023-03-15T09:45:39.326Z,0.33
2023-03-15T09:48:11.530Z,0.40
2023-03-15T09:50:43.449Z,0.30
2023-03-15T09:53:14.839Z,0.30
2023-03-15T09:55:45.464Z,0.40
2023-03-15T09:58:18.119Z,0.30
2023-03-15T10:00:49.597Z,0.30
2023-03-15T10:03:23.136Z,0.40
2023-03-15T10:05:56.024Z,0.30
2023-03-15T10:08:26.700Z,0.30
2023-03-15T10:10:57.103Z,0.40
2023-03-15T10:13:32.282Z,0.30
2023-03-15T10:16:05.318Z,0.40
2023-03-15T10:18:42.951Z,0.30
2023-03-15T10:21:13.998Z,0.40
2023-03-15T10:23:46.840Z,0.30
2023-03-15T10:26:17.585Z,0.30
2023-03-15T10:28:48.784Z,0.30
2023-03-15T10:31:29.380Z,0.40
2023-03-15T10:34:02.771Z,0.40
2023-03-15T10:36:32.291Z,0.40
2023-03-15T10:39:01.847Z,0.40
2023-03-15T10:41:32.295Z,0.40
2023-03-15T10:44:04.863Z,0.40
2023-03-15T10:46:35.765Z,0.30
2023-03-15T10:49:12.047Z,0.40
2023-03-15T10:51:43.406Z,0.30
2023-03-15T10:54:15.202Z,0.30
2023-03-15T10:56:47.308Z,0.30
2023-03-15T10:59:19.281Z,0.30
2023-03-15T11:01:50.699Z,0.40
2023-03-15T11:04:21.615Z,0.30
2023-03-15T11:06:52.596Z,0.30
2023-03-15T11:09:23.519Z,0.30
2023-03-15T11:11:54.367Z,0.33
2023-03-15T11:14:25.371Z,0.30
2023-03-15T11:16:55.745Z,0.30
2023-03-15T11:19:27.490Z,0.30
2023-03-15T11:21:58.062Z,0.30
2023-03-15T11:24:28.705Z,0.30
2023-03-15T11:27:01.788Z,0.30
2023-03-15T11:29:33.810Z,0.30
2023-03-15T11:32:13.447Z,0.30
2023-03-15T11:34:46.173Z,0.30
2023-03-15T11:37:18.708Z,0.20
2023-03-15T11:39:58.815Z,0.20
2023-03-15T11:42:34.199Z,0.20
2023-03-15T11:45:07.205Z,0.20
2023-03-15T11:47:39.796Z,0.30
2023-03-15T11:50:18.162Z,0.20
2023-03-15T11:52:49.975Z,0.30
2023-03-15T11:55:22.093Z,0.30
2023-03-15T11:57:58.883Z,0.38
2023-03-15T12:00:46.281Z,0.40
2023-03-15T12:03:39.453Z,0.40
2023-03-15T12:06:12.703Z,0.30
2023-03-15T12:08:43.609Z,0.30
2023-03-15T12:11:13.662Z,0.30
2023-03-15T12:13:52.832Z,0.20
2023-03-15T12:16:23.177Z,0.30
2023-03-15T12:18:54.814Z,0.20
2023-03-15T12:21:25.008Z,0.30
2023-03-15T12:23:59.223Z,0.30
2023-03-15T12:26:33.630Z,0.20
2023-03-15T12:29:09.116Z,0.30
2023-03-15T12:34:17.172Z,0.30
2023-03-15T12:36:49.531Z,0.30
2023-03-15T12:39:38.780Z,0.30
2023-03-15T12:42:13.667Z,0.30
2023-03-15T12:44:43.755Z,0.40
2023-03-15T12:47:14.097Z,0.50
2023-03-15T12:49:45.490Z,0.30
2023-03-15T12:52:30.127Z,0.40
2023-03-15T12:55:02.906Z,0.40
2023-03-15T12:57:32.972Z,0.35
2023-03-15T13:00:08.107Z,0.31
2023-03-15T13:02:43.739Z,0.30
2023-03-15T13:05:18.715Z,0.30
2023-03-15T13:07:54.716Z,0.20
2023-03-15T13:10:32.179Z,0.20
2023-03-15T13:13:07.042Z,0.20
2023-03-15T13:15:40.745Z,0.20
2023-03-15T13:18:17.779Z,0.20
2023-03-15T13:20:58.996Z,0.20
2023-03-15T13:23:29.186Z,0.20
2023-03-15T13:26:10.620Z,0.20
2023-03-15T13:28:42.351Z,0.23
2023-03-15T13:33:41.917Z,0.20
2023-03-15T13:36:16.084Z,0.30
2023-03-15T13:38:46.543Z,0.30
2023-03-15T13:43:46.105Z,0.40
2023-03-15T13:46:15.663Z,0.40
2023-03-15T13:48:52.540Z,0.22
2023-03-15T13:51:25.338Z,0.37
2023-03-15T13:56:37.419Z,0.35
2023-03-15T13:59:13.861Z,0.35
2023-03-15T14:01:43.973Z,0.40
2023-03-15T14:04:16.222Z,0.37
2023-03-15T14:07:17.543Z,0.40
2023-03-15T14:09:48.532Z,0.30
2023-03-15T14:12:22.800Z,0.40
2023-03-15T14:14:53.181Z,0.30
2023-03-15T14:17:27.027Z,0.35
2023-03-15T14:20:19.967Z,0.33
2023-03-15T14:22:52.685Z,0.40
2023-03-15T14:25:22.720Z,0.40
2023-03-15T14:27:54.478Z,0.30
2023-03-15T14:30:43.160Z,0.30
2023-03-15T14:33:25.898Z,0.30
2023-03-15T14:35:59.752Z,0.40
2023-03-15T14:38:33.627Z,0.30
2023-03-15T14:41:18.768Z,0.30
2023-03-15T14:43:48.316Z,0.35
2023-03-15T14:46:18.141Z,0.32
2023-03-15T14:48:47.972Z,0.40
2023-03-15T14:51:18.442Z,0.30
2023-03-15T14:54:05.501Z,0.30
2023-03-15T14:56:36.900Z,0.30
2023-03-15T14:59:25.368Z,0.30
2023-03-15T15:01:56.537Z,0.33
2023-03-15T15:04:29.077Z,0.30
2023-03-15T15:06:58.646Z,0.30
2023-03-15T15:09:31.002Z,0.30
2023-03-15T15:12:00.604Z,0.30
2023-03-15T15:14:31.661Z,0.35
2023-03-15T15:17:01.289Z,0.30
2023-03-15T15:19:30.850Z,0.30
2023-03-15T15:22:00.478Z,0.30
2023-03-15T15:24:42.412Z,0.30
2023-03-15T15:29:44.884Z,0.30
2023-03-15T15:32:16.438Z,0.30
2023-03-15T15:34:45.942Z,0.30
2023-03-15T15:37:16.134Z,0.30
2023-03-15T15:39:53.000Z,0.00
2023-03-15T15:42:22.475Z,0.30
2023-03-15T15:44:53.989Z,0.30
2023-03-15T15:47:23.477Z,0.30
2023-03-15T15:49:52.985Z,0.30
2023-03-15T15:52:22.984Z,0.40
2023-03-15T15:54:53.871Z,0.30
2023-03-15T15:57:30.841Z,0.40
2023-03-15T16:02:29.912Z,0.30
2023-03-15T16:07:45.547Z,0.40
2023-03-15T16:10:26.339Z,0.35
2023-03-15T16:13:03.993Z,0.35
2023-03-15T16:15:33.513Z,0.40
2023-03-15T16:18:25.721Z,0.40
2023-03-15T16:20:58.420Z,0.30
2023-03-15T16:23:28.194Z,0.30
2023-03-15T16:25:59.064Z,0.40
2023-03-15T16:28:28.546Z,0.40
2023-03-15T16:30:58.092Z,0.40
2023-03-15T16:33:29.751Z,0.40
2023-03-15T16:35:59.288Z,0.40
2023-03-15T16:38:32.365Z,0.30
2023-03-15T16:41:03.267Z,0.40
2023-03-15T16:43:32.864Z,0.35
2023-03-15T16:46:02.745Z,0.40
2023-03-15T16:48:32.328Z,0.40
2023-03-15T16:51:02.206Z,0.40
2023-03-15T16:53:32.139Z,0.40
2023-03-15T16:56:03.116Z,0.30
2023-03-15T16:58:32.911Z,0.40
2023-03-15T17:01:02.420Z,0.33
2023-03-15T17:03:32.983Z,0.40
2023-03-15T17:06:02.493Z,0.40
2023-03-15T17:08:32.594Z,0.30
2023-03-15T17:11:03.517Z,0.30
2023-03-15T17:13:34.511Z,0.40
2023-03-15T17:16:04.069Z,0.40
2023-03-15T17:18:34.790Z,0.40
2023-03-15T17:21:04.418Z,0.40
2023-03-15T17:23:34.084Z,0.40
2023-03-15T17:26:05.172Z,0.40
2023-03-15T17:28:34.745Z,0.40
2023-03-15T17:31:23.359Z,0.40
2023-03-15T17:33:53.838Z,0.40
2023-03-15T17:36:24.547Z,0.40
2023-03-15T17:38:55.041Z,0.40
2023-03-15T17:41:27.720Z,0.40
2023-03-15T17:43:57.272Z,0.30
2023-03-15T17:46:30.273Z,0.40
2023-03-15T17:49:00.183Z,0.40
2023-03-15T17:51:31.050Z,0.40
2023-03-15T17:54:01.039Z,0.30
2023-03-15T17:56:32.693Z,0.40
2023-03-15T17:59:02.200Z,0.33
2023-03-15T18:01:31.738Z,0.30
2023-03-15T18:04:01.458Z,0.30
2023-03-15T18:06:31.108Z,0.40
2023-03-15T18:09:00.712Z,0.40
2023-03-15T18:11:33.757Z,0.43
2023-03-15T18:14:03.406Z,0.40
2023-03-15T18:16:33.302Z,0.40
2023-03-15T18:19:02.908Z,0.30
2023-03-15T18:21:32.406Z,0.40
2023-03-15T18:24:01.974Z,0.40
2023-03-15T18:26:32.933Z,0.40
2023-03-15T18:29:02.470Z,0.40
2023-03-15T18:31:31.974Z,0.40
2023-03-15T18:34:03.531Z,0.40
2023-03-15T18:36:33.159Z,0.40
2023-03-15T18:39:02.629Z,0.40
2023-03-15T18:41:33.829Z,0.30
2023-03-15T18:44:03.361Z,0.30
2023-03-15T18:46:33.165Z,0.40
2023-03-15T18:49:02.797Z,0.30
2023-03-15T18:51:32.294Z,0.37
2023-03-15T18:54:01.811Z,0.40
2023-03-15T18:56:34.305Z,0.40
2023-03-15T18:59:05.400Z,0.40
2023-03-15T19:01:34.963Z,0.40
2023-03-15T19:04:04.540Z,0.40
2023-03-15T19:06:34.067Z,0.40
2023-03-15T19:09:05.242Z,0.40
2023-03-15T19:11:38.296Z,0.30
2023-03-15T19:14:09.511Z,0.40
2023-03-15T19:16:39.160Z,0.40
2023-03-15T19:19:08.714Z,0.40
2023-03-15T19:21:38.951Z,0.40
2023-03-15T19:24:25.003Z,0.40
2023-03-15T19:26:54.536Z,0.40
2023-03-15T19:29:26.701Z,0.37
2023-03-15T19:31:56.345Z,0.43
2023-03-15T19:34:25.840Z,0.40
2023-03-15T19:36:55.411Z,0.40
2023-03-15T19:39:24.951Z,0.40
2023-03-15T19:41:54.527Z,0.40
2023-03-15T19:44:24.063Z,0.40
2023-03-15T19:46:54.943Z,0.40
2023-03-15T19:49:24.810Z,0.40
2023-03-15T19:51:55.488Z,0.40
2023-03-15T19:54:25.054Z,0.47
2023-03-15T19:56:54.658Z,0.50
2023-03-15T19:59:24.164Z,0.50
2023-03-15T20:01:55.174Z,0.40
2023-03-15T20:04:24.771Z,0.40
2023-03-15T20:06:54.358Z,0.40
2023-03-15T20:09:23.885Z,0.40
2023-03-15T20:11:53.541Z,0.38
2023-03-15T20:14:46.028Z,0.36
2023-03-15T20:17:26.908Z,0.50
2023-03-15T20:20:10.260Z,0.43
2023-03-15T20:22:41.402Z,0.40
2023-03-15T20:25:23.767Z,0.40
2023-03-15T20:27:53.462Z,0.40
2023-03-15T20:30:24.769Z,0.40
2023-03-15T20:32:56.134Z,0.40
2023-03-15T20:35:25.765Z,0.40
2023-03-15T20:38:13.908Z,0.30
2023-03-15T20:40:46.082Z,0.40
2023-03-15T20:43:15.643Z,0.30
2023-03-15T20:45:47.116Z,0.30
2023-03-15T20:48:17.980Z,0.40
2023-03-15T20:50:59.802Z,0.30
2023-03-15T20:53:29.301Z,0.37
2023-03-15T20:56:14.236Z,0.40
2023-03-15T20:58:56.253Z,0.30
2023-03-15T21:01:29.096Z,0.35
2023-03-15T21:04:02.491Z,0.40
2023-03-15T21:06:32.346Z,0.40
2023-03-15T21:09:02.605Z,0.40
2023-03-15T21:11:32.113Z,0.30
2023-03-15T21:14:01.691Z,0.40
2023-03-15T21:16:33.247Z,0.33
2023-03-15T21:19:10.774Z,0.35
2023-03-15T21:21:49.129Z,0.40
2023-03-15T21:24:18.705Z,0.37
2023-03-15T21:26:49.600Z,0.40
2023-03-15T21:29:19.151Z,0.30
2023-03-15T21:31:58.698Z,0.30
2023-03-15T21:34:29.610Z,0.30
2023-03-15T21:36:59.211Z,0.40
2023-03-15T21:39:53.962Z,0.30
2023-03-15T21:42:23.943Z,0.38
2023-03-15T21:44:59.048Z,0.30
2023-03-15T21:47:31.097Z,0.30
2023-03-15T21:50:18.347Z,0.35
2023-03-15T21:52:47.807Z,0.30
2023-03-15T21:55:25.458Z,0.30
2023-03-15T21:57:55.013Z,0.30
2023-03-15T22:00:25.099Z,0.30
2023-03-15T22:03:06.004Z,0.30
2023-03-15T22:05:42.543Z,0.28
2023-03-15T22:08:25.337Z,0.30
2023-03-15T22:10:55.441Z,0.27
2023-03-15T22:13:49.044Z,0.30
2023-03-15T22:16:26.564Z,0.28
2023-03-15T22:19:04.085Z,0.40
2023-03-15T22:21:47.873Z,0.40
2023-03-15T22:27:04.930Z,0.38
2023-03-15T22:29:34.548Z,0.30
2023-03-15T22:32:04.054Z,0.40
2023-03-15T22:34:34.342Z,0.30
2023-03-15T22:37:05.266Z,0.40
2023-03-15T22:39:43.195Z,0.43
2023-03-15T22:42:12.737Z,0.40
2023-03-15T22:44:42.267Z,0.40
2023-03-15T22:47:11.958Z,0.40
2023-03-15T22:49:41.487Z,0.30
2023-03-15T22:52:20.848Z,0.40
2023-03-15T22:57:35.949Z,0.40
2023-03-15T23:00:30.230Z,0.40
2023-03-15T23:02:59.694Z,0.35
2023-03-15T23:08:13.836Z,0.40
2023-03-15T23:10:44.976Z,0.40
2023-03-15T23:13:29.936Z,0.40
2023-03-15T23:15:59.499Z,0.47
2023-03-15T23:18:29.134Z,0.40
2023-03-15T23:21:07.887Z,0.38
2023-03-15T23:23:39.694Z,0.35
2023-03-15T23:26:12.833Z,0.40
2023-03-15T23:28:42.330Z,0.43
2023-03-15T23:31:11.878Z,0.40
2023-03-15T23:34:00.905Z,0.40
2023-03-15T23:36:30.358Z,0.40
2023-03-15T23:39:01.260Z,0.40
2023-03-15T23:41:30.905Z,0.40
2023-03-15T23:44:00.362Z,0.40
2023-03-15T23:46:29.938Z,0.50
2023-03-15T23:48:59.403Z,0.40
2023-03-15T23:51:28.877Z,0.40
2023-03-15T23:53:58.351Z,0.40
2023-03-15T23:56:29.793Z,0.40
2023-03-15T23:58:59.689Z,0.40
